sensor_id;sensor_type;location;lat;lon;timestamp;temperature;humidity
48604;DHT22;32708;51.212;6.788;2023-06-26T00:02:10;24.90;99.90
48604;DHT22;32708;51.212;6.788;2023-06-26T00:04:36;24.90;99.90
48604;DHT22;32708;51.212;6.788;2023-06-26T00:07:04;24.80;99.90
48604;DHT22;32708;51.212;6.788;2023-06-26T00:09:30;24.80;1.00
48604;DHT22;32708;51.212;6.788;2023-06-26T00:11:58;24.80;1.00
48604;DHT22;32708;51.212;6.788;2023-06-26T00:14:25;24.70;99.90
48604;DHT22;32708;51.212;6.788;2023-06-26T00:16:52;24.70;99.90
48604;DHT22;32708;51.212;6.788;2023-06-26T00:19:18;24.70;99.90
48604;DHT22;32708;51.212;6.788;2023-06-26T00:21:45;24.70;21.40
48604;DHT22;32708;51.212;6.788;2023-06-26T00:24:14;24.70;1.00
48604;DHT22;32708;51.212;6.788;2023-06-26T00:26:40;24.70;1.00
48604;DHT22;32708;51.212;6.788;2023-06-26T00:29:06;24.60;1.00
48604;DHT22;32708;51.212;6.788;2023-06-26T00:31:33;24.50;99.90
48604;DHT22;32708;51.212;6.788;2023-06-26T00:34:01;24.50;99.90
48604;DHT22;32708;51.212;6.788;2023-06-26T00:36:27;24.50;99.90
48604;DHT22;32708;51.212;6.788;2023-06-26T00:38:53;24.40;99.90
48604;DHT22;32708;51.212;6.788;2023-06-26T00:41:20;24.40;99.90
48604;DHT22;32708;51.212;6.788;2023-06-26T00:43:46;24.40;99.90
48604;DHT22;32708;51.212;6.788;2023-06-26T00:46:13;24.30;1.00
48604;DHT22;32708;51.212;6.788;2023-06-26T00:48:42;24.30;64.10
48604;DHT22;32708;51.212;6.788;2023-06-26T00:51:10;24.30;99.90
48604;DHT22;32708;51.212;6.788;2023-06-26T00:53:37;24.20;99.90
48604;DHT22;32708;51.212;6.788;2023-06-26T00:56:03;24.20;1.00
48604;DHT22;32708;51.212;6.788;2023-06-26T00:58:31;24.20;60.60
48604;DHT22;32708;51.212;6.788;2023-06-26T01:00:57;24.10;1.00
48604;DHT22;32708;51.212;6.788;2023-06-26T01:03:25;24.10;99.90
48604;DHT22;32708;51.212;6.788;2023-06-26T01:05:52;24.10;99.90
48604;DHT22;32708;51.212;6.788;2023-06-26T01:08:23;24.00;99.90
48604;DHT22;32708;51.212;6.788;2023-06-26T01:10:51;24.00;87.80
48604;DHT22;32708;51.212;6.788;2023-06-26T01:13:18;24.00;27.80
48604;DHT22;32708;51.212;6.788;2023-06-26T01:15:46;24.00;99.90
48604;DHT22;32708;51.212;6.788;2023-06-26T01:18:13;24.00;99.90
48604;DHT22;32708;51.212;6.788;2023-06-26T01:20:42;23.90;99.90
48604;DHT22;32708;51.212;6.788;2023-06-26T01:23:22;23.90;99.90
48604;DHT22;32708;51.212;6.788;2023-06-26T01:28:37;23.80;99.90
48604;DHT22;32708;51.212;6.788;2023-06-26T01:31:07;23.80;99.90
48604;DHT22;32708;51.212;6.788;2023-06-26T01:33:35;23.70;99.90
48604;DHT22;32708;51.212;6.788;2023-06-26T01:36:03;23.70;99.90
48604;DHT22;32708;51.212;6.788;2023-06-26T01:38:30;23.70;99.90
48604;DHT22;32708;51.212;6.788;2023-06-26T01:40:57;23.60;99.90
48604;DHT22;32708;51.212;6.788;2023-06-26T01:43:49;23.60;1.00
48604;DHT22;32708;51.212;6.788;2023-06-26T01:46:36;23.60;16.00
48604;DHT22;32708;51.212;6.788;2023-06-26T01:49:20;23.50;99.90
48604;DHT22;32708;51.212;6.788;2023-06-26T01:52:01;23.50;99.90
48604;DHT22;32708;51.212;6.788;2023-06-26T01:54:39;23.50;99.90
48604;DHT22;32708;51.212;6.788;2023-06-26T01:57:18;23.50;1.00
48604;DHT22;32708;51.212;6.788;2023-06-26T01:59:48;23.40;1.00
48604;DHT22;32708;51.212;6.788;2023-06-26T02:02:18;23.40;99.90
48604;DHT22;32708;51.212;6.788;2023-06-26T02:04:44;23.40;99.90
48604;DHT22;32708;51.212;6.788;2023-06-26T02:07:11;23.30;99.90
48604;DHT22;32708;51.212;6.788;2023-06-26T02:09:37;23.30;1.00
48604;DHT22;32708;51.212;6.788;2023-06-26T02:12:04;23.20;5.10
48604;DHT22;32708;51.212;6.788;2023-06-26T02:14:30;23.20;27.30
48604;DHT22;32708;51.212;6.788;2023-06-26T02:16:56;23.30;4.80
48604;DHT22;32708;51.212;6.788;2023-06-26T02:19:22;22.90;99.90
48604;DHT22;32708;51.212;6.788;2023-06-26T02:21:51;23.10;99.90
48604;DHT22;32708;51.212;6.788;2023-06-26T02:24:17;22.90;99.90
48604;DHT22;32708;51.212;6.788;2023-06-26T02:26:43;23.00;99.90
48604;DHT22;32708;51.212;6.788;2023-06-26T02:29:11;23.10;1.00
48604;DHT22;32708;51.212;6.788;2023-06-26T02:31:39;23.20;99.90
48604;DHT22;32708;51.212;6.788;2023-06-26T02:34:05;23.10;55.60
48604;DHT22;32708;51.212;6.788;2023-06-26T02:36:33;23.00;99.90
48604;DHT22;32708;51.212;6.788;2023-06-26T02:38:59;23.20;99.90
48604;DHT22;32708;51.212;6.788;2023-06-26T02:41:26;23.00;99.90
48604;DHT22;32708;51.212;6.788;2023-06-26T02:43:52;23.00;99.90
48604;DHT22;32708;51.212;6.788;2023-06-26T02:46:18;23.00;1.00
48604;DHT22;32708;51.212;6.788;2023-06-26T02:48:44;23.00;99.90
48604;DHT22;32708;51.212;6.788;2023-06-26T02:51:11;23.10;99.90
48604;DHT22;32708;51.212;6.788;2023-06-26T02:53:37;23.10;99.90
48604;DHT22;32708;51.212;6.788;2023-06-26T02:56:05;23.20;59.30
48604;DHT22;32708;51.212;6.788;2023-06-26T02:58:31;23.10;99.90
48604;DHT22;32708;51.212;6.788;2023-06-26T03:00:58;23.20;1.00
48604;DHT22;32708;51.212;6.788;2023-06-26T03:03:24;23.10;23.00
48604;DHT22;32708;51.212;6.788;2023-06-26T03:05:50;23.10;99.90
48604;DHT22;32708;51.212;6.788;2023-06-26T03:08:16;23.10;78.10
48604;DHT22;32708;51.212;6.788;2023-06-26T03:10:42;23.10;1.00
48604;DHT22;32708;51.212;6.788;2023-06-26T03:13:10;23.20;99.90
48604;DHT22;32708;51.212;6.788;2023-06-26T03:15:36;23.10;99.90
48604;DHT22;32708;51.212;6.788;2023-06-26T03:18:03;23.10;92.30
48604;DHT22;32708;51.212;6.788;2023-06-26T03:20:29;23.00;99.90
48604;DHT22;32708;51.212;6.788;2023-06-26T03:22:57;22.90;1.00
48604;DHT22;32708;51.212;6.788;2023-06-26T03:25:23;22.90;99.90
48604;DHT22;32708;51.212;6.788;2023-06-26T03:27:56;22.90;29.30
48604;DHT22;32708;51.212;6.788;2023-06-26T03:30:22;22.90;99.90
48604;DHT22;32708;51.212;6.788;2023-06-26T03:32:51;22.90;99.90
48604;DHT22;32708;51.212;6.788;2023-06-26T03:35:17;22.90;67.40
48604;DHT22;32708;51.212;6.788;2023-06-26T03:37:43;22.90;85.30
48604;DHT22;32708;51.212;6.788;2023-06-26T03:40:10;22.80;99.90
48604;DHT22;32708;51.212;6.788;2023-06-26T03:42:37;22.90;99.90
48604;DHT22;32708;51.212;6.788;2023-06-26T03:45:03;22.90;99.90
48604;DHT22;32708;51.212;6.788;2023-06-26T03:47:31;22.90;99.90
48604;DHT22;32708;51.212;6.788;2023-06-26T03:49:57;22.90;99.90
48604;DHT22;32708;51.212;6.788;2023-06-26T03:52:23;23.00;99.90
48604;DHT22;32708;51.212;6.788;2023-06-26T03:54:49;23.10;99.90
48604;DHT22;32708;51.212;6.788;2023-06-26T03:57:17;23.30;99.90
48604;DHT22;32708;51.212;6.788;2023-06-26T03:59:43;23.40;99.90
48604;DHT22;32708;51.212;6.788;2023-06-26T04:02:09;23.50;99.90
48604;DHT22;32708;51.212;6.788;2023-06-26T04:04:35;23.40;99.90
48604;DHT22;32708;51.212;6.788;2023-06-26T04:07:01;23.60;99.90
48604;DHT22;32708;51.212;6.788;2023-06-26T04:09:28;23.60;15.30
48604;DHT22;32708;51.212;6.788;2023-06-26T04:11:54;23.50;8.50
48604;DHT22;32708;51.212;6.788;2023-06-26T04:14:20;23.50;1.00
48604;DHT22;32708;51.212;6.788;2023-06-26T04:16:46;23.60;99.90
48604;DHT22;32708;51.212;6.788;2023-06-26T04:19:12;23.70;99.90
48604;DHT22;32708;51.212;6.788;2023-06-26T04:21:39;23.80;99.90
48604;DHT22;32708;51.212;6.788;2023-06-26T04:24:06;23.80;89.00
48604;DHT22;32708;51.212;6.788;2023-06-26T04:26:32;23.90;99.90
48604;DHT22;32708;51.212;6.788;2023-06-26T04:28:59;24.00;99.90
48604;DHT22;32708;51.212;6.788;2023-06-26T04:31:25;24.10;99.90
48604;DHT22;32708;51.212;6.788;2023-06-26T04:33:51;24.10;99.90
48604;DHT22;32708;51.212;6.788;2023-06-26T04:36:20;24.20;99.90
48604;DHT22;32708;51.212;6.788;2023-06-26T04:38:47;24.30;99.90
48604;DHT22;32708;51.212;6.788;2023-06-26T04:41:16;24.40;99.90
48604;DHT22;32708;51.212;6.788;2023-06-26T04:43:42;24.40;99.90
48604;DHT22;32708;51.212;6.788;2023-06-26T04:46:08;24.60;14.80
48604;DHT22;32708;51.212;6.788;2023-06-26T04:48:34;24.20;99.90
48604;DHT22;32708;51.212;6.788;2023-06-26T04:51:00;24.20;1.00
48604;DHT22;32708;51.212;6.788;2023-06-26T04:53:26;24.30;99.90
48604;DHT22;32708;51.212;6.788;2023-06-26T04:55:53;24.40;99.90
48604;DHT22;32708;51.212;6.788;2023-06-26T04:58:20;24.30;99.90
48604;DHT22;32708;51.212;6.788;2023-06-26T05:00:46;24.30;99.90
48604;DHT22;32708;51.212;6.788;2023-06-26T05:03:14;24.70;1.00
48604;DHT22;32708;51.212;6.788;2023-06-26T05:05:43;24.50;1.00
48604;DHT22;32708;51.212;6.788;2023-06-26T05:08:17;24.60;1.00
48604;DHT22;32708;51.212;6.788;2023-06-26T05:10:45;24.50;99.90
48604;DHT22;32708;51.212;6.788;2023-06-26T05:13:11;24.40;99.90
48604;DHT22;32708;51.212;6.788;2023-06-26T05:15:41;24.10;54.00
48604;DHT22;32708;51.212;6.788;2023-06-26T05:18:08;23.80;1.00
48604;DHT22;32708;51.212;6.788;2023-06-26T05:20:35;23.60;99.90
48604;DHT22;32708;51.212;6.788;2023-06-26T05:23:05;23.40;99.90
48604;DHT22;32708;51.212;6.788;2023-06-26T05:25:32;23.40;99.90
48604;DHT22;32708;51.212;6.788;2023-06-26T05:28:02;23.30;1.00
48604;DHT22;32708;51.212;6.788;2023-06-26T05:30:31;23.30;99.90
48604;DHT22;32708;51.212;6.788;2023-06-26T05:33:00;23.50;99.90
48604;DHT22;32708;51.212;6.788;2023-06-26T05:35:31;23.60;1.00
48604;DHT22;32708;51.212;6.788;2023-06-26T05:37:58;23.70;1.00
48604;DHT22;32708;51.212;6.788;2023-06-26T05:40:25;23.60;1.00
48604;DHT22;32708;51.212;6.788;2023-06-26T05:42:51;23.80;8.20
48604;DHT22;32708;51.212;6.788;2023-06-26T05:45:18;24.20;99.90
48604;DHT22;32708;51.212;6.788;2023-06-26T05:47:44;24.60;99.90
48604;DHT22;32708;51.212;6.788;2023-06-26T05:50:10;24.70;99.90
48604;DHT22;32708;51.212;6.788;2023-06-26T05:52:37;24.30;77.20
48604;DHT22;32708;51.212;6.788;2023-06-26T05:55:05;24.00;32.40
48604;DHT22;32708;51.212;6.788;2023-06-26T05:57:32;23.90;1.00
48604;DHT22;32708;51.212;6.788;2023-06-26T05:59:59;23.90;1.00
48604;DHT22;32708;51.212;6.788;2023-06-26T06:02:26;23.70;99.90
48604;DHT22;32708;51.212;6.788;2023-06-26T06:04:52;23.90;1.00
48604;DHT22;32708;51.212;6.788;2023-06-26T06:07:18;24.00;99.90
48604;DHT22;32708;51.212;6.788;2023-06-26T06:09:44;24.20;38.50
48604;DHT22;32708;51.212;6.788;2023-06-26T06:12:10;24.50;83.40
48604;DHT22;32708;51.212;6.788;2023-06-26T06:14:36;24.20;38.60
48604;DHT22;32708;51.212;6.788;2023-06-26T06:17:02;24.00;99.90
48604;DHT22;32708;51.212;6.788;2023-06-26T06:19:28;23.70;99.90
48604;DHT22;32708;51.212;6.788;2023-06-26T06:21:55;23.50;99.90
48604;DHT22;32708;51.212;6.788;2023-06-26T06:24:21;23.40;48.50
48604;DHT22;32708;51.212;6.788;2023-06-26T06:26:47;23.60;1.00
48604;DHT22;32708;51.212;6.788;2023-06-26T06:29:13;23.80;1.00
48604;DHT22;32708;51.212;6.788;2023-06-26T06:31:39;23.80;99.90
48604;DHT22;32708;51.212;6.788;2023-06-26T06:34:05;23.60;99.90
48604;DHT22;32708;51.212;6.788;2023-06-26T06:36:31;23.30;99.90
48604;DHT22;32708;51.212;6.788;2023-06-26T06:38:57;23.40;99.90
48604;DHT22;32708;51.212;6.788;2023-06-26T06:41:23;23.70;1.00
48604;DHT22;32708;51.212;6.788;2023-06-26T06:43:49;24.10;1.00
48604;DHT22;32708;51.212;6.788;2023-06-26T06:46:15;24.40;99.90
48604;DHT22;32708;51.212;6.788;2023-06-26T06:48:42;25.20;1.00
48604;DHT22;32708;51.212;6.788;2023-06-26T06:51:08;25.60;15.60
48604;DHT22;32708;51.212;6.788;2023-06-26T06:53:34;25.20;88.70
48604;DHT22;32708;51.212;6.788;2023-06-26T06:56:03;25.00;99.90
48604;DHT22;32708;51.212;6.788;2023-06-26T06:58:29;25.00;99.90
48604;DHT22;32708;51.212;6.788;2023-06-26T07:00:59;25.10;99.90
48604;DHT22;32708;51.212;6.788;2023-06-26T07:03:28;25.30;99.90
48604;DHT22;32708;51.212;6.788;2023-06-26T07:05:55;25.10;99.90
48604;DHT22;32708;51.212;6.788;2023-06-26T07:08:21;24.60;99.90
48604;DHT22;32708;51.212;6.788;2023-06-26T07:10:47;24.20;82.50
48604;DHT22;32708;51.212;6.788;2023-06-26T07:13:14;24.00;1.00
48604;DHT22;32708;51.212;6.788;2023-06-26T07:15:40;23.70;61.40
48604;DHT22;32708;51.212;6.788;2023-06-26T07:18:06;23.60;1.00
48604;DHT22;32708;51.212;6.788;2023-06-26T07:20:32;24.00;99.90
48604;DHT22;32708;51.212;6.788;2023-06-26T07:23:08;24.30;16.00
48604;DHT22;32708;51.212;6.788;2023-06-26T07:25:35;24.40;87.60
48604;DHT22;32708;51.212;6.788;2023-06-26T07:28:02;24.70;1.00
48604;DHT22;32708;51.212;6.788;2023-06-26T07:30:34;25.00;99.90
48604;DHT22;32708;51.212;6.788;2023-06-26T07:33:09;24.70;46.80
48604;DHT22;32708;51.212;6.788;2023-06-26T07:35:35;25.00;1.00
48604;DHT22;32708;51.212;6.788;2023-06-26T07:38:01;24.80;99.90
48604;DHT22;32708;51.212;6.788;2023-06-26T07:40:27;25.20;99.90
48604;DHT22;32708;51.212;6.788;2023-06-26T07:42:54;25.40;99.90
48604;DHT22;32708;51.212;6.788;2023-06-26T07:45:20;25.60;5.30
48604;DHT22;32708;51.212;6.788;2023-06-26T07:47:46;25.70;99.90
48604;DHT22;32708;51.212;6.788;2023-06-26T07:50:12;25.60;1.00
48604;DHT22;32708;51.212;6.788;2023-06-26T07:52:41;25.70;99.90
48604;DHT22;32708;51.212;6.788;2023-06-26T07:55:07;25.60;1.00
48604;DHT22;32708;51.212;6.788;2023-06-26T07:57:34;25.70;99.90
48604;DHT22;32708;51.212;6.788;2023-06-26T08:00:00;25.80;99.90
48604;DHT22;32708;51.212;6.788;2023-06-26T08:02:26;25.80;99.90
48604;DHT22;32708;51.212;6.788;2023-06-26T08:04:52;25.60;1.00
48604;DHT22;32708;51.212;6.788;2023-06-26T08:07:18;25.30;52.70
48604;DHT22;32708;51.212;6.788;2023-06-26T08:09:44;25.10;1.00
48604;DHT22;32708;51.212;6.788;2023-06-26T08:12:10;24.60;1.00
48604;DHT22;32708;51.212;6.788;2023-06-26T08:14:36;24.60;99.90
48604;DHT22;32708;51.212;6.788;2023-06-26T08:17:03;25.00;1.00
48604;DHT22;32708;51.212;6.788;2023-06-26T08:19:29;25.10;1.00
48604;DHT22;32708;51.212;6.788;2023-06-26T08:21:55;24.80;99.90
48604;DHT22;32708;51.212;6.788;2023-06-26T08:24:21;24.80;1.00
48604;DHT22;32708;51.212;6.788;2023-06-26T08:26:48;24.60;23.00
48604;DHT22;32708;51.212;6.788;2023-06-26T08:29:14;24.30;1.00
48604;DHT22;32708;51.212;6.788;2023-06-26T08:31:41;24.20;99.90
48604;DHT22;32708;51.212;6.788;2023-06-26T08:34:09;24.10;99.90
48604;DHT22;32708;51.212;6.788;2023-06-26T08:36:35;24.00;99.90
48604;DHT22;32708;51.212;6.788;2023-06-26T08:39:01;24.00;99.90
48604;DHT22;32708;51.212;6.788;2023-06-26T08:41:28;24.00;1.00
48604;DHT22;32708;51.212;6.788;2023-06-26T08:43:54;24.20;99.90
48604;DHT22;32708;51.212;6.788;2023-06-26T08:46:21;25.00;99.90
48604;DHT22;32708;51.212;6.788;2023-06-26T08:48:57;24.70;99.90
48604;DHT22;32708;51.212;6.788;2023-06-26T08:51:43;25.00;12.10
48604;DHT22;32708;51.212;6.788;2023-06-26T08:54:17;25.40;99.90
48604;DHT22;32708;51.212;6.788;2023-06-26T08:56:56;25.60;99.90
48604;DHT22;32708;51.212;6.788;2023-06-26T08:59:24;25.50;99.90
48604;DHT22;32708;51.212;6.788;2023-06-26T09:01:51;25.30;1.00
48604;DHT22;32708;51.212;6.788;2023-06-26T09:04:17;24.80;99.90
48604;DHT22;32708;51.212;6.788;2023-06-26T09:06:44;24.20;99.90
48604;DHT22;32708;51.212;6.788;2023-06-26T09:09:10;24.10;3.60
48604;DHT22;32708;51.212;6.788;2023-06-26T09:11:36;24.50;99.90
48604;DHT22;32708;51.212;6.788;2023-06-26T09:14:02;24.90;99.90
48604;DHT22;32708;51.212;6.788;2023-06-26T09:16:39;25.30;99.90
48604;DHT22;32708;51.212;6.788;2023-06-26T09:19:11;25.50;99.90
48604;DHT22;32708;51.212;6.788;2023-06-26T09:21:39;25.80;99.90
48604;DHT22;32708;51.212;6.788;2023-06-26T09:24:10;25.70;72.60
48604;DHT22;32708;51.212;6.788;2023-06-26T09:26:40;25.90;1.00
48604;DHT22;32708;51.212;6.788;2023-06-26T09:29:06;26.00;1.00
48604;DHT22;32708;51.212;6.788;2023-06-26T09:31:34;26.20;99.90
48604;DHT22;32708;51.212;6.788;2023-06-26T09:34:03;26.20;99.90
48604;DHT22;32708;51.212;6.788;2023-06-26T09:36:30;25.90;99.90
48604;DHT22;32708;51.212;6.788;2023-06-26T09:39:03;25.70;1.00
48604;DHT22;32708;51.212;6.788;2023-06-26T09:41:35;25.70;1.00
48604;DHT22;32708;51.212;6.788;2023-06-26T09:44:02;26.50;99.90
48604;DHT22;32708;51.212;6.788;2023-06-26T09:46:30;26.60;99.90
48604;DHT22;32708;51.212;6.788;2023-06-26T09:49:06;26.80;99.90
48604;DHT22;32708;51.212;6.788;2023-06-26T09:51:36;26.90;99.90
48604;DHT22;32708;51.212;6.788;2023-06-26T09:54:04;26.60;99.90
48604;DHT22;32708;51.212;6.788;2023-06-26T09:56:32;26.70;99.90
48604;DHT22;32708;51.212;6.788;2023-06-26T10:01:31;26.40;99.90
48604;DHT22;32708;51.212;6.788;2023-06-26T10:03:58;26.70;99.90
48604;DHT22;32708;51.212;6.788;2023-06-26T10:06:34;26.90;99.90
48604;DHT22;32708;51.212;6.788;2023-06-26T10:09:19;27.20;39.80
48604;DHT22;32708;51.212;6.788;2023-06-26T10:11:58;26.60;14.40
48604;DHT22;32708;51.212;6.788;2023-06-26T10:14:33;26.20;32.90
48604;DHT22;32708;51.212;6.788;2023-06-26T10:17:10;26.60;15.20
48604;DHT22;32708;51.212;6.788;2023-06-26T10:19:43;26.50;5.20
48604;DHT22;32708;51.212;6.788;2023-06-26T10:22:15;26.70;1.00
48604;DHT22;32708;51.212;6.788;2023-06-26T10:24:44;26.60;1.00
48604;DHT22;32708;51.212;6.788;2023-06-26T10:27:19;26.90;1.00
48604;DHT22;32708;51.212;6.788;2023-06-26T10:29:53;26.50;1.00
48604;DHT22;32708;51.212;6.788;2023-06-26T10:32:25;26.60;1.00
48604;DHT22;32708;51.212;6.788;2023-06-26T10:34:53;26.60;99.90
48604;DHT22;32708;51.212;6.788;2023-06-26T10:37:21;26.70;99.90
48604;DHT22;32708;51.212;6.788;2023-06-26T10:40:07;26.80;99.90
48604;DHT22;32708;51.212;6.788;2023-06-26T10:42:38;26.80;99.90
48604;DHT22;32708;51.212;6.788;2023-06-26T10:45:20;27.00;99.90
48604;DHT22;32708;51.212;6.788;2023-06-26T10:47:48;27.20;99.90
48604;DHT22;32708;51.212;6.788;2023-06-26T10:53:12;26.80;99.90
48604;DHT22;32708;51.212;6.788;2023-06-26T10:55:59;26.40;99.90
48604;DHT22;32708;51.212;6.788;2023-06-26T11:01:20;26.60;99.90
48604;DHT22;32708;51.212;6.788;2023-06-26T11:06:25;26.90;99.90
48604;DHT22;32708;51.212;6.788;2023-06-26T11:08:53;27.00;99.90
48604;DHT22;32708;51.212;6.788;2023-06-26T11:14:19;26.60;99.90
48604;DHT22;32708;51.212;6.788;2023-06-26T11:16:46;26.80;99.90
48604;DHT22;32708;51.212;6.788;2023-06-26T11:19:14;26.90;99.90
48604;DHT22;32708;51.212;6.788;2023-06-26T11:21:42;26.60;99.90
48604;DHT22;32708;51.212;6.788;2023-06-26T11:24:11;26.20;99.90
48604;DHT22;32708;51.212;6.788;2023-06-26T11:26:43;25.80;99.90
48604;DHT22;32708;51.212;6.788;2023-06-26T11:29:11;26.10;99.90
48604;DHT22;32708;51.212;6.788;2023-06-26T11:31:39;26.70;99.90
48604;DHT22;32708;51.212;6.788;2023-06-26T11:34:09;26.70;99.90
48604;DHT22;32708;51.212;6.788;2023-06-26T11:36:38;26.60;99.90
48604;DHT22;32708;51.212;6.788;2023-06-26T11:39:08;26.70;99.90
48604;DHT22;32708;51.212;6.788;2023-06-26T11:41:39;26.70;99.90
48604;DHT22;32708;51.212;6.788;2023-06-26T11:44:08;26.80;99.90
48604;DHT22;32708;51.212;6.788;2023-06-26T11:46:39;26.70;99.90
48604;DHT22;32708;51.212;6.788;2023-06-26T11:49:06;26.50;99.90
48604;DHT22;32708;51.212;6.788;2023-06-26T11:51:34;26.20;99.90
48604;DHT22;32708;51.212;6.788;2023-06-26T11:54:03;26.10;99.90
48604;DHT22;32708;51.212;6.788;2023-06-26T11:56:30;26.40;99.90
48604;DHT22;32708;51.212;6.788;2023-06-26T12:01:42;26.30;99.90
48604;DHT22;32708;51.212;6.788;2023-06-26T12:04:15;25.80;99.90
48604;DHT22;32708;51.212;6.788;2023-06-26T12:06:47;25.70;99.90
48604;DHT22;32708;51.212;6.788;2023-06-26T12:09:18;25.70;99.90
48604;DHT22;32708;51.212;6.788;2023-06-26T12:11:48;26.00;99.90
48604;DHT22;32708;51.212;6.788;2023-06-26T12:14:20;25.80;99.90
48604;DHT22;32708;51.212;6.788;2023-06-26T12:16:53;25.60;99.90
48604;DHT22;32708;51.212;6.788;2023-06-26T12:19:25;25.70;99.90
48604;DHT22;32708;51.212;6.788;2023-06-26T12:21:54;25.50;99.90
48604;DHT22;32708;51.212;6.788;2023-06-26T12:24:23;25.50;99.90
48604;DHT22;32708;51.212;6.788;2023-06-26T12:26:52;25.30;99.90
48604;DHT22;32708;51.212;6.788;2023-06-26T12:29:20;25.20;99.90
48604;DHT22;32708;51.212;6.788;2023-06-26T12:31:52;25.20;99.90
48604;DHT22;32708;51.212;6.788;2023-06-26T12:34:20;25.40;99.90
48604;DHT22;32708;51.212;6.788;2023-06-26T12:36:53;25.30;99.90
48604;DHT22;32708;51.212;6.788;2023-06-26T12:39:21;25.40;99.90
48604;DHT22;32708;51.212;6.788;2023-06-26T12:41:59;25.70;99.90
48604;DHT22;32708;51.212;6.788;2023-06-26T12:44:29;25.80;99.90
48604;DHT22;32708;51.212;6.788;2023-06-26T12:47:03;25.70;99.90
48604;DHT22;32708;51.212;6.788;2023-06-26T12:49:37;25.50;99.90
48604;DHT22;32708;51.212;6.788;2023-06-26T12:52:09;25.60;99.90
48604;DHT22;32708;51.212;6.788;2023-06-26T12:54:39;25.50;99.90
48604;DHT22;32708;51.212;6.788;2023-06-26T12:57:07;25.70;99.90
48604;DHT22;32708;51.212;6.788;2023-06-26T12:59:38;26.00;99.90
48604;DHT22;32708;51.212;6.788;2023-06-26T13:02:05;26.30;99.90
48604;DHT22;32708;51.212;6.788;2023-06-26T13:04:32;26.20;99.90
48604;DHT22;32708;51.212;6.788;2023-06-26T13:06:59;26.00;99.90
48604;DHT22;32708;51.212;6.788;2023-06-26T13:09:26;26.00;99.90
48604;DHT22;32708;51.212;6.788;2023-06-26T13:11:54;25.90;99.90
48604;DHT22;32708;51.212;6.788;2023-06-26T13:14:20;25.40;99.90
48604;DHT22;32708;51.212;6.788;2023-06-26T13:16:47;25.50;99.90
48604;DHT22;32708;51.212;6.788;2023-06-26T13:19:13;25.80;99.90
48604;DHT22;32708;51.212;6.788;2023-06-26T13:21:39;26.10;99.90
48604;DHT22;32708;51.212;6.788;2023-06-26T13:24:05;26.30;99.90
48604;DHT22;32708;51.212;6.788;2023-06-26T13:26:32;26.60;99.90
48604;DHT22;32708;51.212;6.788;2023-06-26T13:28:59;27.30;99.90
48604;DHT22;32708;51.212;6.788;2023-06-26T13:31:25;27.50;99.90
48604;DHT22;32708;51.212;6.788;2023-06-26T13:33:52;27.10;99.90
48604;DHT22;32708;51.212;6.788;2023-06-26T13:36:19;26.60;99.90
48604;DHT22;32708;51.212;6.788;2023-06-26T13:38:45;26.40;99.90
48604;DHT22;32708;51.212;6.788;2023-06-26T13:41:12;26.50;99.90
48604;DHT22;32708;51.212;6.788;2023-06-26T13:43:38;26.40;99.90
48604;DHT22;32708;51.212;6.788;2023-06-26T13:46:04;26.40;99.90
48604;DHT22;32708;51.212;6.788;2023-06-26T13:48:30;26.10;99.90
48604;DHT22;32708;51.212;6.788;2023-06-26T13:50:58;26.00;99.90
48604;DHT22;32708;51.212;6.788;2023-06-26T13:53:24;26.20;99.90
48604;DHT22;32708;51.212;6.788;2023-06-26T13:55:50;26.10;99.90
48604;DHT22;32708;51.212;6.788;2023-06-26T13:58:16;25.50;99.90
48604;DHT22;32708;51.212;6.788;2023-06-26T14:00:43;25.50;99.90
48604;DHT22;32708;51.212;6.788;2023-06-26T14:03:11;25.70;99.90
48604;DHT22;32708;51.212;6.788;2023-06-26T14:05:37;25.80;99.90
48604;DHT22;32708;51.212;6.788;2023-06-26T14:08:07;25.60;99.90
48604;DHT22;32708;51.212;6.788;2023-06-26T14:10:34;25.70;99.90
48604;DHT22;32708;51.212;6.788;2023-06-26T14:13:00;25.80;99.90
48604;DHT22;32708;51.212;6.788;2023-06-26T14:15:27;25.80;99.90
48604;DHT22;32708;51.212;6.788;2023-06-26T14:17:53;25.50;99.90
48604;DHT22;32708;51.212;6.788;2023-06-26T14:20:22;25.60;99.90
48604;DHT22;32708;51.212;6.788;2023-06-26T14:22:49;25.70;99.90
48604;DHT22;32708;51.212;6.788;2023-06-26T14:25:17;25.80;99.90
48604;DHT22;32708;51.212;6.788;2023-06-26T14:27:43;25.90;99.90
48604;DHT22;32708;51.212;6.788;2023-06-26T14:30:09;26.00;99.90
48604;DHT22;32708;51.212;6.788;2023-06-26T14:32:36;26.20;99.90
48604;DHT22;32708;51.212;6.788;2023-06-26T14:35:03;26.20;99.90
48604;DHT22;32708;51.212;6.788;2023-06-26T14:37:32;25.80;99.90
48604;DHT22;32708;51.212;6.788;2023-06-26T14:39:58;25.70;99.90
48604;DHT22;32708;51.212;6.788;2023-06-26T14:42:25;25.50;99.90
48604;DHT22;32708;51.212;6.788;2023-06-26T14:44:51;25.30;99.90
48604;DHT22;32708;51.212;6.788;2023-06-26T14:47:17;25.50;99.90
48604;DHT22;32708;51.212;6.788;2023-06-26T14:49:43;25.30;99.90
48604;DHT22;32708;51.212;6.788;2023-06-26T14:52:09;25.50;99.90
48604;DHT22;32708;51.212;6.788;2023-06-26T14:54:36;25.60;99.90
48604;DHT22;32708;51.212;6.788;2023-06-26T14:57:06;25.80;99.90
48604;DHT22;32708;51.212;6.788;2023-06-26T14:59:33;25.70;99.90
48604;DHT22;32708;51.212;6.788;2023-06-26T15:01:59;25.50;99.90
48604;DHT22;32708;51.212;6.788;2023-06-26T15:04:25;25.30;99.90
48604;DHT22;32708;51.212;6.788;2023-06-26T15:06:52;25.20;99.90
48604;DHT22;32708;51.212;6.788;2023-06-26T15:09:19;25.00;99.90
48604;DHT22;32708;51.212;6.788;2023-06-26T15:11:45;25.20;99.90
48604;DHT22;32708;51.212;6.788;2023-06-26T15:14:12;25.00;99.90
48604;DHT22;32708;51.212;6.788;2023-06-26T15:16:38;25.00;99.90
48604;DHT22;32708;51.212;6.788;2023-06-26T15:19:04;25.10;99.30
48604;DHT22;32708;51.212;6.788;2023-06-26T15:21:30;25.10;99.50
48604;DHT22;32708;51.212;6.788;2023-06-26T15:23:56;25.00;99.70
48604;DHT22;32708;51.212;6.788;2023-06-26T15:26:22;25.10;99.80
48604;DHT22;32708;51.212;6.788;2023-06-26T15:28:48;24.90;99.90
48604;DHT22;32708;51.212;6.788;2023-06-26T15:31:16;24.90;99.90
48604;DHT22;32708;51.212;6.788;2023-06-26T15:33:43;24.80;99.90
48604;DHT22;32708;51.212;6.788;2023-06-26T15:36:09;24.80;99.90
48604;DHT22;32708;51.212;6.788;2023-06-26T15:38:36;24.80;99.90
48604;DHT22;32708;51.212;6.788;2023-06-26T15:41:02;25.00;99.90
48604;DHT22;32708;51.212;6.788;2023-06-26T15:43:28;24.90;99.90
48604;DHT22;32708;51.212;6.788;2023-06-26T15:45:54;24.90;99.90
48604;DHT22;32708;51.212;6.788;2023-06-26T15:48:21;24.90;99.90
48604;DHT22;32708;51.212;6.788;2023-06-26T15:50:47;24.90;99.90
48604;DHT22;32708;51.212;6.788;2023-06-26T15:53:16;24.70;99.90
48604;DHT22;32708;51.212;6.788;2023-06-26T15:55:43;24.60;99.90
48604;DHT22;32708;51.212;6.788;2023-06-26T15:58:09;24.70;99.90